| Date | Time | Temp. (oF) | Dew Point (oF) | Rel. Hum. (%) | Press. (in.) | Wind Dir. | Wind Speed (mph) | Hourly Rainfall (in.) |
|
|---|---|---|---|---|---|---|---|---|---|
| 1 | 06/06 | 00:00 | 58 | 54 | 89 | 29.71 | WSW | 1 | 0.00 |
| 2 | 06/05 | 23:00 | 60 | 55 | 84 | 29.71 | WNW | 4 | 0.00 |
| 3 | 06/05 | 22:00 | 62 | 55 | 78 | 29.69 | S | 3 | 0.00 |
| 4 | 06/05 | 21:00 | 63 | 56 | 80 | 29.67 | SSW | 3 | 0.00 |
| 5 | 06/05 | 20:00 | 64 | 56 | 77 | 29.66 | S | 3 | 0.00 |
| 6 | 06/05 | 19:00 | 65 | 58 | 79 | 29.66 | NW | 3 | 0.01 |
| 7 | 06/05 | 18:00 | 70 | 54 | 58 | 29.64 | S | 13 | 0.00 |
| 8 | 06/05 | 17:00 | 75 | 54 | 50 | 29.61 | S | 7 | 0.00 |
| 9 | 06/05 | 16:00 | 74 | 53 | 49 | 29.63 | WNW | 4 | 0.00 |
| 10 | 06/05 | 15:00 | 73 | 53 | 50 | 29.65 | W | 11 | 0.00 |
| 11 | 06/05 | 14:00 | 74 | 53 | 49 | 29.67 | SSW | 12 | 0.00 |
| 12 | 06/05 | 13:00 | 73 | 54 | 52 | 29.69 | WSW | 7 | 0.00 |
| 13 | 06/05 | 12:00 | 68 | 52 | 58 | 29.71 | SW | 6 | 0.00 |
| 14 | 06/05 | 11:00 | 68 | 54 | 62 | 29.73 | S | 7 | 0.00 |
| 15 | 06/05 | 10:00 | 66 | 51 | 59 | 29.74 | S | 6 | 0.00 |
| 16 | 06/05 | 09:00 | 65 | 51 | 62 | 29.76 | SW | 9 | 0.00 |
| 17 | 06/05 | 08:00 | 59 | 54 | 84 | 29.75 | SSE | 2 | 0.00 |
| 18 | 06/05 | 07:00 | 53 | 52 | 98 | 29.77 | SW | 2 | 0.00 |
| 19 | 06/05 | 06:00 | 50 | 50 | 100 | 29.76 | SSW | 1 | 0.00 |
| 20 | 06/05 | 05:00 | 50 | 50 | 100 | 29.76 | WSW | 1 | 0.00 |
| 21 | 06/05 | 04:00 | 51 | 50 | 97 | 29.75 | WSW | 0 | 0.00 |
| 22 | 06/05 | 03:00 | 53 | 51 | 94 | 29.76 | WSW | 0 | 0.00 |
| 23 | 06/05 | 02:00 | 56 | 51 | 84 | 29.78 | WNW | 1 | 0.00 |
| 24 | 06/05 | 01:00 | 60 | 49 | 69 | 29.77 | W | 1 | 0.00 |